Hurdland, MO (63547)

1:32 AM CDT on July 14, 2014 (GMT -0500)
La Plata (KMOLAPLA2) Elev 928 ft | 40.03 °N, 92.48 °W | Change Station

Current weather conditions updated 6 seconds ago

Clear
Clear
70.0 °F
Feels Like 70.0 °F
N
0.0
Wind Variable Wind from North
Gusts 0.0 mph

Today is forecast to be Much Cooler than yesterday.

Today
High -- | Low -- °F
--% Chance of Precip.
Yesterday
High -- | Low -- °F
Precip. -- in
5:51 AM 8:37 PM
Waning Gibbous, 95% visible
Pressure 29.96 in
Visibility 2.5 miles
Clouds Clear
Dew Point 69 °F
Humidity 96%
Rainfall 0.00 in
Snow Depth Not available.
UV 0 out of 12
Pollen .60 out of 12
Air Quality Not available.
Flu Activity Sporadic
SPECI KIRK 140628Z AUTO 00000KT 2 1/2SM BR CLR 19/19 A2996 RMK AO2 T01940189

More Conditions Fewer Conditions

Pressure 29.96 in
Visibility 2.5 miles
Clouds Clear
Dew Point 69 °F
Humidity 96%
Rainfall 0.00 in
Snow Depth Not available.
UV 0 out of 12
Pollen .60 out of 12
Air Quality Not available.
Flu Activity Sporadic
SPECI KIRK 140628Z AUTO 00000KT 2 1/2SM BR CLR 19/19 A2996 RMK AO2 T01940189

More Conditions Fewer Conditions

10-Day Weather Forecast

Almanac

Astronomy

Jul. 14, 2014 Rise Set
Actual Time 5:51 AM CDT 8:37 PM CDT
Civil Twilight 5:19 AM CDT 9:09 PM CDT
Nautical Twilight 4:39 AM CDT 9:50 PM CDT
Astronomical Twilight 3:53 AM CDT 10:35 PM CDT
Moon 10:07 PM CDT 8:35 AM CDT
Length of Visible Light 15h 50m
Length of Day
14h 46m
Tomorrow will be 1m 19s shorter.
Waning Gibbous, 95% of the Moon is Illuminated
Today
Waning Gibbous
Jul 18
Last Quarter
Jul 26
New
Aug 3
First Quarter
Aug 10
Full

Today's Extremes

State Highs State Lows

Community

WunderPhotos

Upload Photos

1,733,565 photos uploaded!

Nearby

Snow Depth

Station Depth Elevation
No new snow has been reported.

Earthquake Activity

City Distance Mag. Time & Date
No recent earthquake activity has been reported nearby.
Minimum magnitude displayed is 2.5.

Coastal Water Temperatures

Place Temperature
No Stations Reporting

Nearby Weather Stations

Station Location Temp. Dew Point Humidity Wind Precip. Elev Updated Type
La Plata, La Plata, MO 70.0 °F 69 °F 96% North  at  0.0 mph 0.00 in / hr 928 ft 1:32 AM CDT Rapid Fire
RAWS ATLANTA MO MO, Atlanta, MO 69 °F 69 °F 100% North  at  0 mph 0.00 in / hr 839 ft 12:13 AM CDT MADIS

Show More Stations Show Fewer Stations